Time;durP1;ratioP1;P1;durP2;ratioP2;P2;SDS_P1;SDS_P2;PMS_P1;PMS_P2;Temp;Humidity;BMP_temperature;BMP_pressure;BME280_temperature;BME280_humidity;BME280_pressure;Samples;Min_cycle;Max_cycle;Signal;HPM_P1;HPM_P2
2022/02/21 00:00:50;;;;;;;1.10;0.60;;;9.30;99.90;;;;;;5027130;28;20386;-72
2022/02/21 00:03:20;;;;;;;1.23;0.80;;;9.30;99.90;;;;;;5027005;28;20129;-73
2022/02/21 00:05:46;;;;;;;2.40;0.68;;;9.30;99.90;;;;;;5027283;28;20116;-71
2022/02/21 00:08:12;;;;;;;2.47;0.70;;;9.30;99.90;;;;;;5024395;28;20036;-72
2022/02/21 00:10:37;;;;;;;2.35;0.77;;;9.40;99.90;;;;;;5028768;28;20033;-71
2022/02/21 00:13:03;;;;;;;1.40;0.60;;;9.40;99.90;;;;;;5030308;28;20021;-73
2022/02/21 00:15:28;;;;;;;0.70;0.70;;;9.40;99.90;;;;;;5031504;28;20684;-73
2022/02/21 00:17:56;;;;;;;1.30;0.70;;;9.40;99.90;;;;;;5029915;28;20112;-72
2022/02/21 00:20:22;;;;;;;3.72;0.70;;;9.40;99.90;;;;;;5031459;28;20104;-73
2022/02/21 00:22:47;;;;;;;1.38;0.65;;;9.40;99.90;;;;;;5032246;28;20160;-73
2022/02/21 00:25:13;;;;;;;2.40;0.70;;;9.40;99.90;;;;;;5032429;28;20034;-73
2022/02/21 00:27:38;;;;;;;3.40;0.70;;;9.30;99.90;;;;;;5030556;28;20033;-72
2022/02/21 00:30:05;;;;;;;1.17;0.63;;;9.30;99.90;;;;;;5025608;28;20482;-72
2022/02/21 00:32:31;;;;;;;1.65;0.80;;;9.20;99.90;;;;;;5023199;28;20030;-72
2022/02/21 00:34:57;;;;;;;2.58;0.85;;;9.20;99.90;;;;;;5035434;28;20036;-72
2022/02/21 00:37:23;;;;;;;1.17;0.80;;;9.20;99.90;;;;;;5030867;28;20026;-71
2022/02/21 00:39:48;;;;;;;4.05;0.60;;;9.10;99.90;;;;;;5030410;28;20033;-71
2022/02/21 00:42:14;;;;;;;1.30;0.65;;;9.10;99.90;;;;;;5032050;28;20133;-73
2022/02/21 00:44:41;;;;;;;3.25;0.75;;;9.10;99.90;;;;;;5022711;28;20029;-71
2022/02/21 00:47:07;;;;;;;1.60;0.60;;;9.00;99.90;;;;;;5029430;28;20342;-71
2022/02/21 00:49:33;;;;;;;1.20;0.70;;;9.00;99.90;;;;;;5037391;28;20032;-72
2022/02/21 00:51:59;;;;;;;3.80;0.75;;;9.00;99.90;;;;;;5039220;28;20494;-72
2022/02/21 00:54:26;;;;;;;3.38;0.70;;;8.90;99.90;;;;;;5031192;28;20031;-71
2022/02/21 00:56:51;;;;;;;3.30;0.65;;;8.90;99.90;;;;;;5029368;28;20048;-72
2022/02/21 00:59:17;;;;;;;1.50;0.60;;;8.90;99.90;;;;;;5029524;28;20458;-72
2022/02/21 01:01:43;;;;;;;1.00;0.75;;;8.90;99.90;;;;;;5030124;28;20470;-72
2022/02/21 01:04:08;;;;;;;2.13;0.70;;;8.90;99.90;;;;;;5020940;28;20657;-72
2022/02/21 01:06:34;;;;;;;3.45;1.00;;;8.90;99.90;;;;;;5029756;28;20371;-72
2022/02/21 01:09:00;;;;;;;2.55;0.70;;;8.90;99.90;;;;;;5031034;28;20044;-72
2022/02/21 01:11:30;;;;;;;1.42;0.60;;;8.90;99.90;;;;;;5030371;28;20044;-72
2022/02/21 01:13:59;;;;;;;1.95;0.80;;;8.90;99.90;;;;;;5031925;28;20083;-71
2022/02/21 01:16:24;;;;;;;2.72;0.60;;;8.90;99.90;;;;;;5030236;28;20018;-72
2022/02/21 01:18:51;;;;;;;3.20;0.75;;;8.80;99.90;;;;;;5018542;28;20036;-74
2022/02/21 01:21:16;;;;;;;1.15;0.68;;;8.80;99.90;;;;;;5031494;28;20057;-72
2022/02/21 01:23:42;;;;;;;0.98;0.65;;;8.90;99.90;;;;;;5030737;28;20033;-72
2022/02/21 01:26:08;;;;;;;1.35;0.63;;;8.90;99.90;;;;;;5031338;28;20037;-72
2022/02/21 01:28:33;;;;;;;4.57;0.73;;;8.80;99.90;;;;;;5021648;28;20458;-71
2022/02/21 01:30:59;;;;;;;3.10;0.80;;;8.80;99.90;;;;;;5028998;28;20049;-72
2022/02/21 01:33:25;;;;;;;0.60;0.60;;;8.80;99.90;;;;;;5028867;28;20043;-74
2022/02/21 01:35:51;;;;;;;1.63;0.80;;;8.80;99.90;;;;;;5029849;28;20029;-73
2022/02/21 01:38:17;;;;;;;3.22;0.73;;;8.80;99.90;;;;;;5042187;28;20024;-73
2022/02/21 01:40:42;;;;;;;1.25;0.60;;;8.80;99.90;;;;;;5043802;28;20117;-72
2022/02/21 01:43:08;;;;;;;3.15;1.00;;;8.80;99.90;;;;;;5030829;28;20061;-71
2022/02/21 01:45:34;;;;;;;3.85;0.65;;;8.90;99.90;;;;;;5030763;28;20040;-72
2022/02/21 01:47:59;;;;;;;5.55;0.82;;;8.90;99.90;;;;;;5027404;28;20025;-73
2022/02/21 01:50:25;;;;;;;3.67;1.08;;;8.90;99.90;;;;;;5027692;28;20419;-72
2022/02/21 01:52:51;;;;;;;1.17;0.60;;;8.90;99.90;;;;;;5030915;28;20029;-71
2022/02/21 01:55:16;;;;;;;3.63;0.80;;;8.90;99.90;;;;;;5030038;28;20034;-72
2022/02/21 01:57:43;;;;;;;3.47;0.93;;;8.90;99.90;;;;;;5028402;28;20592;-72
2022/02/21 02:00:09;;;;;;;2.05;0.70;;;9.00;99.90;;;;;;5031005;28;20390;-71
2022/02/21 02:02:35;;;;;;;3.40;0.90;;;9.00;99.90;;;;;;5030479;28;20509;-73
2022/02/21 02:05:01;;;;;;;2.97;0.70;;;9.00;99.90;;;;;;5028936;28;20113;-72
2022/02/21 02:07:27;;;;;;;2.28;0.75;;;9.00;99.90;;;;;;5025746;28;20338;-73
2022/02/21 02:09:53;;;;;;;0.85;0.50;;;9.00;99.90;;;;;;5028697;28;20037;-72
2022/02/21 02:12:18;;;;;;;2.42;0.70;;;9.10;99.90;;;;;;5028336;28;20080;-75
2022/02/21 02:14:44;;;;;;;1.88;0.70;;;9.10;99.90;;;;;;5029431;28;20030;-72
2022/02/21 02:17:14;;;;;;;1.02;0.43;;;9.10;99.90;;;;;;5028973;28;20026;-73
2022/02/21 02:19:42;;;;;;;2.58;0.70;;;9.10;99.90;;;;;;5024159;28;20390;-73
2022/02/21 02:22:13;;;;;;;1.50;0.70;;;9.10;99.90;;;;;;5029123;28;20037;-72
2022/02/21 02:24:41;;;;;;;1.60;0.80;;;9.10;99.90;;;;;;5028278;28;20032;-71
2022/02/21 02:27:10;;;;;;;3.33;0.70;;;9.20;99.90;;;;;;5029260;28;20094;-72
2022/02/21 02:29:40;;;;;;;1.65;0.55;;;9.20;99.90;;;;;;5027449;28;20037;-73
2022/02/21 02:32:07;;;;;;;1.65;0.50;;;9.20;99.90;;;;;;5018666;28;20026;-72
2022/02/21 02:34:33;;;;;;;1.17;0.60;;;9.20;99.90;;;;;;5024647;28;20048;-73
2022/02/21 02:36:58;;;;;;;4.25;0.80;;;9.20;99.90;;;;;;5027424;28;20056;-72
2022/02/21 02:39:25;;;;;;;1.52;0.60;;;9.20;99.90;;;;;;5029570;28;20490;-73
2022/02/21 02:41:51;;;;;;;0.60;0.55;;;9.20;99.90;;;;;;5030158;28;20064;-73
2022/02/21 02:44:17;;;;;;;2.05;0.55;;;9.20;99.90;;;;;;5027737;28;20142;-72
2022/02/21 02:46:42;;;;;;;1.23;0.50;;;9.30;99.90;;;;;;5027411;28;20036;-73
2022/02/21 02:49:08;;;;;;;1.55;0.60;;;9.30;99.90;;;;;;5026025;28;20025;-73
2022/02/21 02:51:34;;;;;;;2.78;0.60;;;9.30;99.90;;;;;;5029243;28;20026;-71
2022/02/21 02:53:59;;;;;;;3.58;0.82;;;9.30;99.90;;;;;;5029563;28;20033;-73
2022/02/21 02:56:25;;;;;;;1.17;0.55;;;9.20;99.90;;;;;;5027812;28;20056;-71
2022/02/21 02:58:51;;;;;;;1.63;0.40;;;9.20;99.90;;;;;;5028713;28;20530;-71
2022/02/21 03:01:16;;;;;;;1.27;0.73;;;9.20;99.90;;;;;;5029770;28;20038;-71
2022/02/21 03:03:42;;;;;;;1.15;0.60;;;9.20;99.90;;;;;;5028216;28;20041;-72
2022/02/21 03:06:07;;;;;;;1.20;0.60;;;9.20;99.90;;;;;;5028249;28;20091;-71
2022/02/21 03:08:33;;;;;;;1.30;0.63;;;9.10;99.90;;;;;;5026810;28;20029;-72
2022/02/21 03:10:59;;;;;;;1.55;0.65;;;9.10;99.90;;;;;;5028769;28;20046;-71
2022/02/21 03:13:24;;;;;;;1.27;0.60;;;9.00;99.90;;;;;;5028258;28;20044;-71
2022/02/21 03:15:50;;;;;;;0.60;0.45;;;9.00;99.90;;;;;;5028921;28;20029;-74
2022/02/21 03:18:15;;;;;;;1.13;0.50;;;9.00;99.90;;;;;;5027729;28;20064;-72
2022/02/21 03:20:41;;;;;;;0.50;0.50;;;9.00;99.90;;;;;;5027558;28;20022;-72
2022/02/21 03:23:07;;;;;;;1.40;0.57;;;9.00;99.90;;;;;;5028723;28;20025;-72
2022/02/21 03:25:32;;;;;;;1.40;0.40;;;9.00;99.90;;;;;;5025952;28;20501;-72
2022/02/21 03:27:58;;;;;;;3.95;0.60;;;9.10;99.90;;;;;;5024777;28;20256;-72
2022/02/21 03:30:23;;;;;;;0.90;0.57;;;9.00;99.90;;;;;;5029127;28;20079;-71
2022/02/21 03:32:49;;;;;;;2.53;0.82;;;8.90;99.90;;;;;;5027853;28;20102;-71
2022/02/21 03:35:14;;;;;;;1.80;0.60;;;8.80;99.90;;;;;;5026684;28;20175;-73
2022/02/21 03:37:41;;;;;;;1.30;0.60;;;8.80;99.90;;;;;;5027194;28;20036;-74
2022/02/21 03:40:08;;;;;;;2.25;0.57;;;8.70;99.90;;;;;;5026601;28;20367;-73
2022/02/21 03:42:34;;;;;;;1.98;0.50;;;8.60;99.90;;;;;;5034251;28;20112;-70
2022/02/21 03:45:02;;;;;;;2.00;0.50;;;8.50;99.90;;;;;;5028844;28;20501;-73
2022/02/21 03:47:27;;;;;;;3.13;0.50;;;8.40;99.90;;;;;;5024515;28;20029;-71
2022/02/21 03:49:53;;;;;;;2.13;0.63;;;8.40;99.90;;;;;;5028765;28;20036;-71
2022/02/21 03:52:18;;;;;;;0.95;0.50;;;8.20;99.90;;;;;;5027360;28;20030;-73
2022/02/21 03:54:44;;;;;;;3.65;0.57;;;7.80;99.90;;;;;;5026240;28;20075;-73
2022/02/21 03:57:09;;;;;;;1.65;0.60;;;7.30;99.90;;;;;;5026052;28;20481;-71
2022/02/21 03:59:35;;;;;;;1.65;0.88;;;6.90;99.90;;;;;;5026420;28;20133;-73
2022/02/21 04:02:01;;;;;;;1.77;0.60;;;6.50;99.90;;;;;;5029121;28;20030;-73
2022/02/21 04:04:26;;;;;;;1.10;0.65;;;6.10;99.90;;;;;;5026410;28;20485;-73
2022/02/21 04:06:52;;;;;;;1.48;0.57;;;5.80;99.90;;;;;;5028426;28;20374;-71
2022/02/21 04:09:17;;;;;;;1.48;0.75;;;5.50;99.90;;;;;;5025665;28;20432;-73
2022/02/21 04:11:43;;;;;;;1.33;0.60;;;5.30;99.90;;;;;;5025554;28;20021;-73
2022/02/21 04:14:08;;;;;;;2.53;0.80;;;5.10;99.90;;;;;;5027242;28;20565;-74
2022/02/21 04:16:34;;;;;;;4.82;0.77;;;5.10;99.90;;;;;;5025078;28;20026;-69
2022/02/21 04:19:03;;;;;;;3.95;0.80;;;5.00;99.90;;;;;;5026061;28;20199;-72
2022/02/21 04:21:32;;;;;;;1.65;0.68;;;4.90;99.90;;;;;;5027181;28;20493;-74
2022/02/21 04:23:58;;;;;;;2.70;1.08;;;5.00;99.90;;;;;;5028019;28;20037;-71
2022/02/21 04:26:24;;;;;;;1.15;0.77;;;4.90;99.90;;;;;;5025923;28;20030;-73
2022/02/21 04:28:50;;;;;;;2.00;0.70;;;5.00;99.90;;;;;;5021666;28;20087;-73
2022/02/21 04:31:17;;;;;;;2.13;0.80;;;5.00;99.90;;;;;;5026354;28;20512;-72
2022/02/21 04:33:46;;;;;;;3.63;0.77;;;5.00;99.90;;;;;;5027418;28;20060;-72
2022/02/21 04:36:13;;;;;;;3.88;0.95;;;5.00;99.90;;;;;;5026453;28;20029;-72
2022/02/21 04:38:39;;;;;;;3.42;0.90;;;5.00;99.90;;;;;;5025753;28;20025;-71
2022/02/21 04:41:04;;;;;;;2.10;0.75;;;5.00;99.90;;;;;;5027367;28;20398;-71
2022/02/21 04:43:30;;;;;;;4.10;1.00;;;4.90;99.90;;;;;;5027039;28;20037;-74
2022/02/21 04:45:56;;;;;;;2.88;0.77;;;4.90;99.90;;;;;;5026070;28;20026;-71
2022/02/21 04:48:22;;;;;;;2.33;1.00;;;4.90;99.90;;;;;;5030823;28;20033;-71
2022/02/21 04:50:47;;;;;;;3.08;1.13;;;4.90;99.90;;;;;;5026977;28;20029;-71
2022/02/21 04:53:13;;;;;;;3.45;0.90;;;4.90;99.90;;;;;;5028192;28;20036;-70
2022/02/21 04:55:39;;;;;;;2.88;0.82;;;4.90;99.90;;;;;;5027381;28;20068;-72
2022/02/21 04:58:05;;;;;;;2.55;0.80;;;4.90;99.90;;;;;;5027186;28;20538;-71
2022/02/21 05:00:31;;;;;;;3.58;1.33;;;4.90;99.90;;;;;;5031207;28;20662;-71
2022/02/21 05:02:56;;;;;;;3.67;1.02;;;4.80;99.90;;;;;;5030360;28;20025;-71
2022/02/21 05:05:22;;;;;;;2.25;0.80;;;4.80;99.90;;;;;;5030971;28;20037;-71
2022/02/21 05:07:48;;;;;;;4.20;0.88;;;4.80;99.90;;;;;;5030221;28;20022;-71
2022/02/21 05:10:14;;;;;;;2.58;0.80;;;4.80;99.90;;;;;;5029589;28;20021;-70
2022/02/21 05:12:40;;;;;;;2.25;0.90;;;4.80;99.90;;;;;;5031247;28;20036;-71
2022/02/21 05:15:07;;;;;;;2.40;1.08;;;4.80;99.90;;;;;;5028875;28;20061;-69
2022/02/21 05:17:33;;;;;;;6.03;1.10;;;4.70;99.90;;;;;;5031096;28;20379;-71
2022/02/21 05:19:59;;;;;;;3.17;0.90;;;4.70;99.90;;;;;;5030784;28;20029;-71
2022/02/21 05:22:25;;;;;;;1.95;1.20;;;4.70;99.90;;;;;;5031341;28;20032;-72
2022/02/21 05:24:50;;;;;;;3.40;1.10;;;4.70;99.90;;;;;;5030523;28;20048;-71
2022/02/21 05:27:43;;;;;;;3.42;1.05;;;4.70;99.90;;;;;;5064312;22;20200;-84
2022/02/21 05:30:16;;;;;;;2.17;1.15;;;4.70;99.90;;;;;;4991820;28;20030;-84
2022/02/21 05:32:47;;;;;;;4.60;1.38;;;4.60;99.90;;;;;;4997298;28;20034;-85
2022/02/21 05:35:29;;;;;;;5.45;1.13;;;4.60;99.90;;;;;;5029820;28;20125;-85
2022/02/21 05:38:03;;;;;;;4.78;1.20;;;4.70;99.90;;;;;;4997884;28;20034;-86
2022/02/21 05:40:51;;;;;;;5.80;1.20;;;4.70;99.90;;;;;;5006321;28;20030;-86
2022/02/21 05:43:53;;;;;;;8.52;1.30;;;4.60;99.90;;;;;;5011217;28;20555;-86
2022/02/21 05:46:35;;;;;;;2.05;1.15;;;4.60;99.90;;;;;;5016832;28;20036;-86
2022/02/21 05:49:11;;;;;;;;;;;;;;;;;;;;;
2022/02/21 05:51:52;;;;;;;3.83;1.40;;;4.60;99.90;;;;;;4993703;28;20091;-86
2022/02/21 05:54:41;;;;;;;2.22;1.10;;;4.70;99.90;;;;;;5012867;28;20053;-86
2022/02/21 05:57:45;;;;;;;2.92;1.10;;;4.70;99.90;;;;;;5012906;28;20420;-86
2022/02/21 06:00:49;;;;;;;4.30;1.17;;;4.60;99.90;;;;;;4936695;28;20063;-85
2022/02/21 06:03:50;;;;;;;5.97;1.00;;;4.70;99.90;;;;;;5012529;28;20053;-86
2022/02/21 06:06:19;;;;;;;4.90;1.35;;;4.60;99.90;;;;;;4977192;28;20476;-86
2022/02/21 06:11:55;;;;;;;9.05;1.45;;;4.70;99.90;;;;;;5000468;28;20100;-85
2022/02/21 06:18:09;;;;;;;3.20;1.33;;;4.60;99.90;;;;;;4972686;28;20167;-85
2022/02/21 06:20:53;;;;;;;5.35;1.20;;;4.60;99.90;;;;;;5009683;28;20022;-86
2022/02/21 06:23:22;;;;;;;6.18;1.45;;;4.50;99.90;;;;;;5001702;28;20030;-87
2022/02/21 06:25:59;;;;;;;6.82;1.52;;;4.50;99.90;;;;;;5012203;28;20034;-86
2022/02/21 06:29:16;;;;;;;9.57;1.83;;;4.60;99.90;;;;;;5012185;28;20033;-85
2022/02/21 06:38:43;;;;;;;7.50;1.80;;;4.60;99.90;;;;;;5000002;23;20053;-68
2022/02/21 06:41:08;;;;;;;6.07;1.52;;;4.60;99.90;;;;;;5035809;28;20025;-67
2022/02/21 06:43:34;;;;;;;6.20;1.83;;;4.60;99.90;;;;;;5014226;28;20083;-68
2022/02/21 06:45:59;;;;;;;9.82;1.48;;;4.60;99.90;;;;;;5042359;28;20024;-67
2022/02/21 06:48:25;;;;;;;8.32;1.60;;;4.60;99.90;;;;;;5031576;28;20067;-66
2022/02/21 06:50:51;;;;;;;10.35;1.70;;;4.60;99.90;;;;;;5030921;28;20497;-68
2022/02/21 06:53:16;;;;;;;7.03;1.70;;;4.60;99.90;;;;;;5025920;28;20037;-69
2022/02/21 06:55:42;;;;;;;9.43;1.55;;;4.60;99.90;;;;;;5031836;28;20029;-69
2022/02/21 06:58:10;;;;;;;6.55;2.03;;;4.60;99.90;;;;;;5017213;28;20034;-69
2022/02/21 07:00:36;;;;;;;10.85;1.70;;;4.70;99.90;;;;;;5026483;28;20030;-67
2022/02/21 07:03:02;;;;;;;7.30;1.40;;;4.70;99.90;;;;;;5027752;28;20111;-69
2022/02/21 07:05:28;;;;;;;12.30;1.70;;;4.70;99.90;;;;;;5026708;28;20104;-67
2022/02/21 07:07:53;;;;;;;7.45;1.80;;;4.70;99.90;;;;;;5026635;28;20037;-69
2022/02/21 07:10:19;;;;;;;6.80;1.65;;;4.70;99.90;;;;;;5029795;28;20041;-67
2022/02/21 07:12:44;;;;;;;7.85;1.58;;;4.70;99.90;;;;;;5030627;28;20478;-68
2022/02/21 07:15:10;;;;;;;6.25;1.70;;;4.70;99.90;;;;;;5030272;28;20048;-67
2022/02/21 07:17:40;;;;;;;9.05;2.25;;;4.70;99.90;;;;;;5028323;28;20105;-67
2022/02/21 07:20:12;;;;;;;10.63;1.77;;;5.00;99.90;;;;;;5030843;28;20030;-69
2022/02/21 07:22:38;;;;;;;8.00;1.75;;;5.10;99.90;;;;;;5030871;28;20037;-69
2022/02/21 07:25:04;;;;;;;8.60;1.50;;;5.00;99.90;;;;;;5031592;28;20489;-69
2022/02/21 07:27:30;;;;;;;7.22;1.58;;;4.90;99.90;;;;;;5030575;28;20052;-69
2022/02/21 07:29:55;;;;;;;5.53;1.40;;;4.80;99.90;;;;;;5031425;28;20029;-69
2022/02/21 07:32:21;;;;;;;8.63;1.60;;;4.80;99.90;;;;;;5031050;28;20033;-69
2022/02/21 07:34:46;;;;;;;8.88;1.60;;;4.70;99.90;;;;;;5029436;28;20091;-70
2022/02/21 07:37:12;;;;;;;9.52;1.70;;;4.70;99.90;;;;;;5026512;28;20018;-71
2022/02/21 07:39:38;;;;;;;13.00;1.95;;;4.70;99.90;;;;;;5030556;28;20508;-69
2022/02/21 07:42:04;;;;;;;6.43;1.70;;;4.70;99.90;;;;;;5030735;28;20029;-69
2022/02/21 07:44:29;;;;;;;11.75;1.83;;;4.70;99.90;;;;;;5030792;28;20017;-69
2022/02/21 07:46:55;;;;;;;7.22;1.50;;;4.80;99.90;;;;;;5030712;28;20097;-69
2022/02/21 07:49:20;;;;;;;12.45;1.92;;;4.80;99.90;;;;;;5029954;28;20083;-68
2022/02/21 07:51:46;;;;;;;13.40;1.98;;;4.80;99.90;;;;;;5030689;28;20381;-68
2022/02/21 07:54:12;;;;;;;9.45;2.40;;;4.70;99.90;;;;;;5030090;28;20044;-68
2022/02/21 07:56:37;;;;;;;6.32;1.70;;;4.70;99.90;;;;;;5030737;28;20021;-68
2022/02/21 07:59:03;;;;;;;17.40;2.00;;;4.70;99.90;;;;;;5030053;28;20068;-68
2022/02/21 08:01:29;;;;;;;10.85;1.77;;;4.80;99.90;;;;;;5030388;28;20029;-68
2022/02/21 08:03:55;;;;;;;10.82;2.05;;;4.70;99.90;;;;;;5030660;28;20026;-68
2022/02/21 08:06:20;;;;;;;8.02;1.75;;;4.80;99.90;;;;;;5030097;28;20037;-68
2022/02/21 08:08:47;;;;;;;10.57;1.88;;;4.80;99.90;;;;;;5029593;28;20037;-68
2022/02/21 08:11:13;;;;;;;9.57;2.03;;;4.80;99.90;;;;;;5030233;28;20021;-68
2022/02/21 08:13:38;;;;;;;13.02;1.73;;;4.80;99.90;;;;;;5011123;28;20032;-68
2022/02/21 08:16:04;;;;;;;8.00;1.90;;;4.80;99.90;;;;;;5027375;28;20045;-68
2022/02/21 08:18:32;;;;;;;9.70;2.10;;;4.90;99.90;;;;;;5029961;28;20025;-68
2022/02/21 08:20:58;;;;;;;13.57;2.40;;;4.90;99.90;;;;;;5030056;28;20137;-68
2022/02/21 08:23:24;;;;;;;13.70;2.47;;;4.90;99.90;;;;;;5030296;28;20529;-67
2022/02/21 08:25:49;;;;;;;10.52;2.45;;;4.90;99.90;;;;;;5023959;28;20033;-67
2022/02/21 08:28:15;;;;;;;12.85;2.55;;;5.00;99.90;;;;;;5029805;28;20025;-67
2022/02/21 08:30:40;;;;;;;8.55;1.70;;;5.00;99.90;;;;;;5030592;28;20056;-67
2022/02/21 08:33:06;;;;;;;8.77;2.10;;;5.00;99.90;;;;;;5031291;28;20029;-67
2022/02/21 08:35:32;;;;;;;11.82;2.22;;;5.00;99.90;;;;;;5034012;28;20426;-67
2022/02/21 08:37:59;;;;;;;10.25;1.88;;;5.00;99.90;;;;;;5033436;28;20077;-67
2022/02/21 08:40:25;;;;;;;9.15;2.03;;;5.00;99.90;;;;;;5034473;28;20021;-67
2022/02/21 08:42:50;;;;;;;11.60;2.05;;;5.10;99.90;;;;;;5032400;28;20025;-67
2022/02/21 08:45:16;;;;;;;19.10;2.00;;;5.10;99.90;;;;;;5032944;28;20022;-67
2022/02/21 08:47:42;;;;;;;10.38;2.25;;;5.10;99.90;;;;;;5033598;28;20026;-67
2022/02/21 08:50:12;;;;;;;8.98;2.45;;;5.10;99.90;;;;;;5033594;28;20025;-67
2022/02/21 08:52:42;;;;;;;13.25;2.25;;;5.10;99.90;;;;;;5034106;28;20029;-68
2022/02/21 08:55:10;;;;;;;10.32;2.00;;;5.20;99.90;;;;;;5033798;28;20028;-68
2022/02/21 08:57:37;;;;;;;11.10;1.98;;;5.20;99.90;;;;;;5033177;28;20041;-68
2022/02/21 09:00:07;;;;;;;13.85;2.70;;;5.30;99.90;;;;;;5032957;28;20105;-68
2022/02/21 09:02:33;;;;;;;12.07;2.50;;;5.30;99.90;;;;;;5033813;28;20091;-68
2022/02/21 09:04:59;;;;;;;14.90;2.35;;;5.40;99.90;;;;;;5033200;28;20025;-68
2022/02/21 09:07:24;;;;;;;5.82;1.70;;;5.50;99.90;;;;;;5033209;28;20025;-68
2022/02/21 09:09:50;;;;;;;13.65;1.95;;;5.50;99.90;;;;;;5033372;28;20389;-68
2022/02/21 09:12:16;;;;;;;8.38;1.73;;;5.50;99.90;;;;;;5033296;28;20185;-68
2022/02/21 09:14:46;;;;;;;13.10;2.72;;;5.50;99.90;;;;;;5033707;28;20041;-68
2022/02/21 09:17:12;;;;;;;14.88;2.72;;;5.60;99.90;;;;;;5032742;28;20025;-68
2022/02/21 09:19:37;;;;;;;14.82;2.38;;;5.60;99.90;;;;;;5033762;28;20423;-68
2022/02/21 09:22:03;;;;;;;16.60;2.63;;;5.60;99.90;;;;;;5032970;28;20035;-68
2022/02/21 09:24:29;;;;;;;12.32;2.50;;;5.70;99.90;;;;;;5033265;28;20053;-68
2022/02/21 09:26:54;;;;;;;13.80;2.33;;;5.70;99.90;;;;;;5032741;28;20083;-68
2022/02/21 09:29:20;;;;;;;9.70;2.08;;;5.70;99.90;;;;;;5033013;28;20022;-68
2022/02/21 09:31:45;;;;;;;8.90;2.22;;;5.70;99.90;;;;;;5032939;28;20311;-68
2022/02/21 09:34:11;;;;;;;11.05;2.47;;;5.70;99.90;;;;;;5032635;28;20441;-68
2022/02/21 09:36:37;;;;;;;12.95;1.80;;;5.70;99.90;;;;;;5033400;28;20036;-68
2022/02/21 09:39:03;;;;;;;9.77;2.20;;;5.60;99.90;;;;;;5032353;28;20025;-68
2022/02/21 09:41:30;;;;;;;8.13;1.92;;;5.60;99.90;;;;;;5033177;28;20041;-68
2022/02/21 09:43:57;;;;;;;10.07;2.00;;;5.60;99.90;;;;;;5031605;28;20025;-68
2022/02/21 09:46:28;;;;;;;12.60;2.10;;;5.60;99.90;;;;;;5032716;28;20021;-68
2022/02/21 09:48:54;;;;;;;11.88;2.28;;;5.60;99.90;;;;;;5032078;28;20038;-68
2022/02/21 09:51:20;;;;;;;14.80;1.83;;;5.60;99.90;;;;;;5029277;28;20025;-69
2022/02/21 09:53:46;;;;;;;10.82;2.17;;;5.60;99.90;;;;;;5031702;28;20083;-68
2022/02/21 09:56:12;;;;;;;14.27;2.03;;;5.70;99.90;;;;;;5030020;28;20036;-68
2022/02/21 09:58:37;;;;;;;8.60;2.10;;;5.70;99.90;;;;;;5031315;28;20599;-68
2022/02/21 10:01:03;;;;;;;10.00;1.83;;;5.70;99.90;;;;;;5031274;28;20477;-68
2022/02/21 10:03:40;;;;;;;7.93;1.30;;;5.80;99.90;;;;;;5032678;28;20489;-69
2022/02/21 10:06:32;;;;;;;9.57;1.77;;;5.80;99.90;;;;;;5032136;28;20027;-68
2022/02/21 10:09:09;;;;;;;8.43;2.00;;;5.90;99.90;;;;;;5028136;28;20136;-68
2022/02/21 10:11:46;;;;;;;9.07;1.50;;;5.90;99.90;;;;;;5032208;28;20044;-68
2022/02/21 10:14:16;;;;;;;7.07;1.80;;;5.90;99.90;;;;;;5031071;28;20374;-69
2022/02/21 10:16:50;;;;;;;7.65;1.52;;;5.90;99.90;;;;;;5032055;28;20022;-68
2022/02/21 10:19:28;;;;;;;3.90;1.15;;;5.90;99.90;;;;;;5031132;28;20045;-68
2022/02/21 10:22:10;;;;;;;6.03;1.13;;;5.90;99.90;;;;;;5032074;28;20504;-69
2022/02/21 10:24:43;;;;;;;9.15;1.40;;;5.80;99.90;;;;;;5032342;28;20057;-69
2022/02/21 10:27:19;;;;;;;5.40;1.42;;;5.60;99.90;;;;;;5029724;28;20425;-68
2022/02/21 10:30:01;;;;;;;5.70;1.70;;;5.50;99.90;;;;;;5030821;28;20138;-68
2022/02/21 10:32:30;;;;;;;4.78;1.20;;;5.40;99.90;;;;;;5029923;28;20040;-68
2022/02/21 10:35:09;;;;;;;7.03;1.65;;;5.40;99.90;;;;;;5036042;28;20032;-68
2022/02/21 10:37:45;;;;;;;7.45;1.60;;;5.30;99.90;;;;;;5030800;28;20040;-68
2022/02/21 10:40:20;;;;;;;7.07;1.40;;;5.30;99.90;;;;;;5035912;28;20018;-68
2022/02/21 10:43:06;;;;;;;7.28;1.40;;;5.40;99.90;;;;;;5030872;28;20044;-68
2022/02/21 10:45:32;;;;;;;9.63;2.08;;;5.50;99.90;;;;;;5031483;28;20108;-68
2022/02/21 10:48:21;;;;;;;10.07;2.13;;;5.60;99.90;;;;;;5030624;28;20039;-68
2022/02/21 10:51:01;;;;;;;4.22;1.55;;;5.60;99.90;;;;;;5031304;28;20052;-68
2022/02/21 10:53:48;;;;;;;4.57;1.63;;;5.70;99.90;;;;;;5030814;28;20037;-68
2022/02/21 10:56:16;;;;;;;6.05;1.25;;;5.70;99.90;;;;;;5030143;28;20040;-68
2022/02/21 10:58:41;;;;;;;6.55;1.52;;;5.80;99.90;;;;;;5030452;28;20022;-68
2022/02/21 11:01:09;;;;;;;12.55;1.83;;;5.90;99.90;;;;;;5031290;28;20036;-68
2022/02/21 11:03:35;;;;;;;8.23;1.88;;;6.00;99.90;;;;;;5031471;28;20126;-68
2022/02/21 11:06:02;;;;;;;9.07;1.95;;;6.00;99.90;;;;;;5030584;28;20029;-68
2022/02/21 11:08:29;;;;;;;8.02;1.75;;;5.90;99.90;;;;;;5030317;28;20037;-68
2022/02/21 11:10:58;;;;;;;7.95;1.60;;;5.80;99.90;;;;;;5030507;28;20025;-69
2022/02/21 11:13:25;;;;;;;54.22;15.52;;;5.70;99.90;;;;;;5029619;28;20517;-68
2022/02/21 11:15:52;;;;;;;15.80;6.50;;;5.60;99.90;;;;;;5030602;28;20112;-68
2022/02/21 11:18:19;;;;;;;4.75;2.10;;;5.40;99.90;;;;;;5030597;28;20021;-68
2022/02/21 11:20:45;;;;;;;3.40;1.52;;;5.40;99.90;;;;;;5029652;28;20026;-68
2022/02/21 11:23:11;;;;;;;5.22;1.40;;;5.30;99.90;;;;;;5030535;28;20044;-68
2022/02/21 11:25:45;;;;;;;10.18;1.35;;;5.30;99.90;;;;;;5030881;28;20108;-68
2022/02/21 11:28:21;;;;;;;4.68;1.13;;;5.20;99.90;;;;;;5034267;23;20497;-71
2022/02/21 11:30:49;;;;;;;4.75;1.50;;;5.30;99.90;;;;;;4991043;28;20081;-72
2022/02/21 11:33:18;;;;;;;4.20;1.45;;;5.30;99.90;;;;;;5011451;28;20054;-71
2022/02/21 11:36:01;;;;;;;8.30;1.83;;;5.40;99.90;;;;;;5011947;28;20477;-71
2022/02/21 11:38:30;;;;;;;4.07;1.50;;;5.50;99.90;;;;;;4990766;28;20475;-71
2022/02/21 11:41:03;;;;;;;6.50;1.70;;;5.70;99.90;;;;;;5007643;28;20493;-75
2022/02/21 11:43:31;;;;;;;9.05;1.50;;;5.80;99.90;;;;;;5008113;28;20161;-72
2022/02/21 11:46:02;;;;;;;10.75;1.63;;;5.90;99.90;;;;;;5004235;28;20076;-70
2022/02/21 11:48:54;;;;;;;6.32;1.40;;;6.10;99.90;;;;;;4995622;28;20033;-71
2022/02/21 11:51:42;;;;;;;4.43;1.20;;;6.30;99.90;;;;;;5011678;28;20385;-70
2022/02/21 11:54:11;;;;;;;7.05;1.67;;;6.40;99.90;;;;;;5010929;28;20084;-71
2022/02/21 11:56:49;;;;;;;12.63;1.88;;;6.50;99.90;;;;;;5011536;28;20052;-71
2022/02/21 11:59:21;;;;;;;5.03;1.45;;;6.50;99.90;;;;;;5014430;28;20041;-73
2022/02/21 12:02:03;;;;;;;7.47;1.60;;;6.50;99.90;;;;;;5013041;28;20026;-70
2022/02/21 12:04:45;;;;;;;;;;;6.40;99.90;;;;;;5010216;28;20026;-72
2022/02/21 12:07:21;;;;;;;8.27;1.50;;;6.30;99.90;;;;;;5009656;28;19918;-71
2022/02/21 12:10:21;;;;;;;7.57;1.60;;;6.20;99.90;;;;;;5010967;28;20018;-71
2022/02/21 12:12:54;;;;;;;4.95;1.27;;;6.20;99.90;;;;;;5010494;28;20038;-70
2022/02/21 12:15:30;;;;;;;6.22;1.55;;;6.20;99.90;;;;;;5010799;28;20101;-71
2022/02/21 12:18:03;;;;;;;7.47;1.50;;;6.20;99.90;;;;;;5010108;28;20028;-70
2022/02/21 12:20:32;;;;;;;6.85;1.50;;;6.20;99.90;;;;;;5010673;28;20023;-72
2022/02/21 12:23:13;;;;;;;5.15;1.40;;;6.30;99.90;;;;;;5010880;28;20049;-70
2022/02/21 12:25:41;;;;;;;8.15;1.65;;;6.40;99.90;;;;;;5009698;28;20128;-74
2022/02/21 12:28:24;;;;;;;6.20;1.50;;;6.50;99.90;;;;;;5007579;28;20157;-69
2022/02/21 12:30:54;;;;;;;4.57;1.27;;;6.60;99.90;;;;;;5010712;28;20018;-72
2022/02/21 12:33:27;;;;;;;11.80;1.48;;;6.60;99.90;;;;;;5005466;28;20065;-74
2022/02/21 12:35:59;;;;;;;5.57;1.52;;;6.60;99.90;;;;;;5012934;28;20060;-70
2022/02/21 12:38:32;;;;;;;6.88;1.27;;;6.50;99.90;;;;;;5009539;28;20076;-70
2022/02/21 12:41:11;;;;;;;7.15;1.30;;;6.60;99.90;;;;;;5010674;28;20096;-74
2022/02/21 12:43:46;;;;;;;4.15;1.13;;;6.60;99.90;;;;;;5010606;28;20025;-70
2022/02/21 12:46:17;;;;;;;3.38;1.23;;;6.60;99.90;;;;;;5010780;28;20048;-74
2022/02/21 12:48:44;;;;;;;8.25;1.60;;;6.70;99.90;;;;;;5009232;28;20026;-71
2022/02/21 12:51:20;;;;;;;7.53;2.08;;;6.70;99.90;;;;;;5010165;28;20032;-70
2022/02/21 12:54:07;;;;;;;5.40;1.55;;;6.70;99.90;;;;;;5010250;28;20126;-72
2022/02/21 12:56:48;;;;;;;4.78;1.20;;;6.80;99.90;;;;;;5010554;28;20032;-71
2022/02/21 12:59:16;;;;;;;3.33;1.27;;;6.80;99.90;;;;;;5009220;28;20403;-70
2022/02/21 13:01:42;;;;;;;4.50;1.30;;;6.80;99.90;;;;;;5027040;28;20072;-71
2022/02/21 13:04:08;;;;;;;9.98;1.95;;;6.80;99.90;;;;;;5027214;28;20520;-70
2022/02/21 13:06:35;;;;;;;6.65;1.38;;;6.70;99.90;;;;;;5010381;28;20105;-70
2022/02/21 13:09:00;;;;;;;3.95;1.48;;;6.70;99.90;;;;;;5009694;28;20533;-72
2022/02/21 13:11:29;;;;;;;7.78;1.50;;;6.70;99.90;;;;;;5007879;28;20105;-70
2022/02/21 13:13:56;;;;;;;6.00;1.58;;;6.70;99.90;;;;;;5009738;28;20037;-71
2022/02/21 13:16:27;;;;;;;4.78;1.40;;;6.60;99.90;;;;;;5008753;28;20022;-71
2022/02/21 13:19:00;;;;;;;4.50;1.30;;;6.50;99.90;;;;;;5006518;28;20138;-73
2022/02/21 13:21:43;;;;;;;5.60;1.42;;;6.50;99.90;;;;;;5013444;28;20022;-70